Data for 04/30/2016

Time Sea-Level Adjusted Pressure Absolute Pressure Temperature Relative Humidity Dew Point   
(mb) (inHg) (mb) (inHg) (C) (F) (%) (C) (F)
00:05 1017 30.03 846 24.98 4.1 39.3 67 -1.5 29.4
00:10 1017 30.03 846 24.98 4 39.2 68 -1.4 29.5
00:15 1017 30.03 846 24.98 3.9 39.1 68 -1.4 29.5
00:20 1017 30.03 846 24.98 3.9 39 69 -1.3 29.6
00:25 1017 30.03 846 24.98 3.8 38.9 69 -1.3 29.6
00:30 1017 30.03 846 24.98 3.8 38.8 69 -1.3 29.6
00:35 1017 30.03 847 25.01 3.7 38.7 70 -1.3 29.6
00:40 1017 30.03 847 25.01 3.7 38.7 70 -1.3 29.6
00:45 1017 30.03 847 25.01 3.7 38.7 69 -1.4 29.5
00:50 1017 30.03 847 25.01 3.7 38.6 70 -1.3 29.7
00:55 1017 30.03 847 25.01 3.7 38.6 70 -1.2 29.8
01:00 1018 30.06 847 25.01 3.6 38.5 71 -1.2 29.9
01:05 1018 30.06 847 25.01 3.6 38.5 71 -1.1 29.9
01:10 1018 30.06 847 25.01 3.6 38.6 71 -1.2 29.9
01:15 1018 30.06 847 25.01 3.6 38.5 71 -1.2 29.9
01:20 1018 30.06 847 25.01 3.6 38.5 71 -1.2 29.9
01:25 1018 30.06 847 25.01 3.7 38.6 71 -1.1 30
01:30 1018 30.06 847 25.01 3.6 38.6 71 -1.1 30
01:35 1018 30.06 847 25.01 3.6 38.5 71 -1.1 30.1
01:40 1018 30.06 847 25.01 3.6 38.4 72 -1 30.2
01:45 1018 30.06 847 25.01 3.5 38.4 72 -1 30.2
01:50 1018 30.06 847 25.01 3.5 38.3 72 -1 30.2
01:55 1018 30.06 847 25.01 3.5 38.3 72 -1 30.2
02:00 1018 30.06 847 25.01 3.5 38.2 73 -0.9 30.3
02:05 1018 30.06 847 25.01 3.4 38.1 73 -0.9 30.3
02:10 1018 30.06 847 25.01 3.4 38.1 73 -1 30.3
02:15 1018 30.06 847 25.01 3.4 38.1 73 -0.9 30.4
02:20 1018 30.06 847 25.01 3.4 38.1 74 -0.8 30.5
02:25 1018 30.06 847 25.01 3.4 38.1 74 -0.8 30.5
02:30 1018 30.06 847 25.01 3.4 38.1 74 -0.9 30.4
02:35 1018 30.06 847 25.01 3.4 38.1 74 -0.8 30.6
02:40 1018 30.06 847 25.01 3.4 38.1 74 -0.7 30.7
02:45 1018 30.06 847 25.01 3.3 38 74 -0.8 30.5
02:50 1018 30.06 847 25.01 3.4 38 74 -0.9 30.3
02:55 1018 30.06 847 25.01 3.4 38 73 -0.9 30.3
03:00 1018 30.06 847 25.01 3.4 38 73 -0.9 30.3
03:05 1018 30.06 847 25.01 3.3 37.9 73 -1 30.2
03:10 1018 30.06 847 25.01 3.3 38 73 -1 30.2
03:15 1018 30.06 847 25.01 3.3 37.9 74 -1 30.2
03:20 1018 30.06 847 25.01 3.2 37.8 74 -1 30.2
03:25 1018 30.06 847 25.01 3.2 37.8 74 -1 30.2
03:30 1018 30.06 848 25.04 3.2 37.7 75 -0.9 30.3
03:35 1018 30.06 848 25.04 3.1 37.6 75 -0.9 30.3
03:40 1018 30.06 848 25.04 3.1 37.5 75 -1 30.3
03:45 1019 30.09 848 25.04 3.1 37.5 75 -0.9 30.3
03:50 1019 30.09 848 25.04 3.1 37.5 76 -0.8 30.5
03:55 1019 30.09 848 25.04 3 37.4 76 -0.9 30.4
04:00 1019 30.09 848 25.04 2.9 37.2 76 -0.9 30.3
04:05 1019 30.09 848 25.04 2.9 37.2 76 -0.9 30.3
04:10 1019 30.09 848 25.04 3 37.3 75 -1 30.3
04:15 1019 30.09 848 25.04 3 37.4 75 -0.9 30.3
04:20 1019 30.09 848 25.04 3.1 37.5 76 -0.8 30.5
04:25 1019 30.09 848 25.04 3 37.5 76 -0.8 30.6
04:30 1019 30.09 848 25.04 3 37.3 77 -0.7 30.7
04:35 1019 30.09 848 25.04 2.9 37.3 77 -0.7 30.7
04:40 1019 30.09 848 25.04 2.9 37.3 77 -0.7 30.8
04:45 1019 30.09 848 25.04 2.9 37.2 77 -0.7 30.8
04:50 1019 30.09 848 25.04 2.9 37.2 77 -0.7 30.8
04:55 1019 30.09 848 25.04 2.9 37.3 76 -0.9 30.3
05:00 1019 30.09 848 25.04 3.1 37.5 75 -1 30.3
05:05 1019 30.09 848 25.04 3.1 37.6 75 -0.9 30.4
05:10 1019 30.09 848 25.04 3.1 37.6 75 -0.9 30.4
05:15 1019 30.09 848 25.04 3.2 37.7 75 -0.8 30.6
05:20 1019 30.09 848 25.04 3.2 37.7 75 -0.8 30.6
05:25 1019 30.09 848 25.04 3.2 37.8 76 -0.7 30.7
05:30 1019 30.09 848 25.04 3.2 37.8 76 -0.6 30.9
05:35 1019 30.09 848 25.04 3.2 37.8 76 -0.6 31
05:40 1019 30.09 848 25.04 3.2 37.8 76 -0.6 30.9
05:45 1019 30.09 848 25.04 3.3 37.9 76 -0.6 30.9
05:50 1019 30.09 849 25.07 3.3 37.9 76 -0.5 31
05:55 1019 30.09 849 25.07 3.3 38 76 -0.5 31
06:00 1019 30.09 849 25.07 3.4 38 76 -0.5 31.1
06:05 1020 30.12 849 25.07 3.4 38 76 -0.4 31.3
06:10 1020 30.12 849 25.07 3.4 38.1 77 -0.4 31.4
06:15 1020 30.12 849 25.07 3.4 38.1 76 -0.4 31.3
06:20 1020 30.12 849 25.07 3.4 38.2 76 -0.4 31.3
06:25 1020 30.12 849 25.07 3.5 38.2 76 -0.4 31.2
06:30 1020 30.12 849 25.07 3.5 38.3 75 -0.4 31.3
06:35 1020 30.12 849 25.07 3.6 38.4 75 -0.5 31
06:40 1020 30.12 849 25.07 3.6 38.6 74 -0.5 31.1
06:45 1020 30.12 849 25.07 3.7 38.7 73 -0.6 30.9
06:50 1020 30.12 849 25.07 3.8 38.8 74 -0.5 31.1
06:55 1020 30.12 849 25.07 3.9 39 73 -0.5 31.2
07:00 1020 30.12 850 25.1 3.9 39 73 -0.6 31
07:05 1020 30.12 850 25.1 4 39.2 71 -0.7 30.7
07:10 1020 30.12 850 25.1 4.1 39.3 71 -0.6 30.9
07:15 1021 30.15 850 25.1 4.1 39.4 71 -0.7 30.7
07:20 1021 30.15 850 25.1 4.1 39.4 71 -0.7 30.7
07:25 1021 30.15 850 25.1 4.1 39.5 71 -0.6 30.9
07:30 1021 30.15 850 25.1 4.2 39.5 73 -0.3 31.4
07:35 1021 30.15 850 25.1 4.2 39.5 72 -0.4 31.2
07:40 1021 30.15 850 25.1 4.2 39.5 72 -0.4 31.2
07:45 1021 30.15 850 25.1 4.3 39.7 71 -0.5 31.1
07:50 1021 30.15 850 25.1 4.4 39.8 70 -0.6 30.9
07:55 1021 30.15 850 25.1 4.5 40.1 70 -0.6 31
08:00 1021 30.15 850 25.1 4.6 40.2 69 -0.6 31
08:05 1021 30.15 850 25.1 4.6 40.3 69 -0.6 31
08:10 1021 30.15 850 25.1 4.7 40.5 69 -0.5 31
08:15 1021 30.15 850 25.1 4.8 40.7 68 -0.6 31
08:20 1021 30.15 850 25.1 5 41 67 -0.5 31.1
08:25 1021 30.15 850 25.1 5 40.9 68 -0.5 31.1
08:30 1021 30.15 850 25.1 5 41 68 -0.5 31.1
08:35 1021 30.15 850 25.1 5 41 68 -0.4 31.2
08:40 1021 30.15 850 25.1 5.1 41.2 66 -0.8 30.6
08:45 1021 30.15 850 25.1 5.1 41.2 66 -0.7 30.7
08:50 1021 30.15 850 25.1 5.1 41.2 66 -0.6 30.9
08:55 1021 30.15 850 25.1 5.1 41.2 67 -0.4 31.3
09:00 1021 30.15 850 25.1 5.2 41.4 66 -0.6 30.8
09:05 1021 30.15 851 25.13 5.6 42.1 65 -0.4 31.2
09:10 1021 30.15 851 25.13 5.5 41.8 66 -0.4 31.3
09:15 1021 30.15 851 25.13 5.9 42.6 63 -0.6 31
09:20 1021 30.15 851 25.13 6.3 43.3 62 -0.5 31.1
09:25 1021 30.15 851 25.13 6.2 43.1 61 -0.8 30.5
09:30 1021 30.15 851 25.13 7 44.6 57 -0.9 30.4
09:35 1021 30.15 851 25.13 6.8 44.2 58 -0.8 30.5
09:40 1021 30.15 851 25.13 6.8 44.3 56 -1.3 29.7
09:45 1021 30.15 851 25.13 6.5 43.7 58 -1.1 30.1
09:50 1021 30.15 851 25.13 6.5 43.7 58 -1.1 30
09:55 1021 30.15 851 25.13 6.7 44.1 57 -1.1 30
10:00 1021 30.15 851 25.13 6.9 44.4 58 -0.8 30.6
10:05 1022 30.18 851 25.13 6.9 44.5 57 -0.9 30.4
10:10 1021 30.15 851 25.13 6.8 44.3 57 -1.2 29.8
10:15 1021 30.15 851 25.13 7 44.6 55 -1.4 29.5
10:20 1022 30.18 851 25.13 7.6 45.8 54 -1.1 30
10:25 1022 30.18 851 25.13 7.6 45.6 56 -0.6 30.9
10:30 1022 30.18 851 25.13 7.2 45 59 -0.2 31.6
10:35 1022 30.18 851 25.13 6.5 43.7 60 -0.7 30.7
10:40 1022 30.18 851 25.13 6.7 44 60 -0.6 30.9
10:45 1022 30.18 851 25.13 6.5 43.7 60 -0.7 30.7
10:50 1021 30.15 851 25.13 6.6 44 58 -0.9 30.3
10:55 1022 30.18 851 25.13 6.9 44.3 57 -1 30.2
11:00 1022 30.18 851 25.13 6.7 44.1 59 -0.7 30.7
11:05 1022 30.18 851 25.13 6.8 44.3 58 -0.8 30.6
11:10 1022 30.18 851 25.13 6.8 44.3 59 -0.6 30.9
11:15 1022 30.18 851 25.13 6.6 43.9 60 -0.7 30.8
11:20 1022 30.18 851 25.13 6.7 44.1 61 -0.3 31.5
11:25 1022 30.18 851 25.13 6.5 43.7 64 0.2 32.3
11:30 1022 30.18 851 25.13 6.3 43.3 61 -0.7 30.8
11:35 1022 30.18 851 25.13 6.4 43.5 63 -0.2 31.6
11:40 1022 30.18 851 25.13 6.1 43 70 1 33.8
11:45 1022 30.18 851 25.13 6 42.8 69 0.7 33.3
11:50 1022 30.18 851 25.13 6.2 43.2 66 0.4 32.6
11:55 1022 30.18 851 25.13 6 42.8 67 0.4 32.7
12:00 1022 30.18 851 25.13 6.2 43.1 67 0.6 33.1
12:05 1022 30.18 851 25.13 6 42.8 67 0.4 32.8
12:10 1022 30.18 851 25.13 6.3 43.4 65 0.4 32.6
12:15 1022 30.18 851 25.13 6.1 43 66 0.2 32.3
12:20 1022 30.18 851 25.13 6.2 43.1 66 0.4 32.6
12:25 1022 30.18 851 25.13 5.9 42.6 67 0.3 32.5
12:30 1022 30.18 852 25.16 6.1 43 65 0.1 32.1
12:35 1022 30.18 852 25.16 6.3 43.3 65 0.2 32.3
12:40 1022 30.18 852 25.16 6.3 43.3 63 -0.1 31.7
12:45 1022 30.18 851 25.13 6.4 43.6 65 0.3 32.5
12:50 1022 30.18 852 25.16 6.3 43.4 66 0.4 32.7
12:55 1022 30.18 852 25.16 6.1 42.9 67 0.4 32.7
13:00 1022 30.18 852 25.16 6.1 42.9 66 0.2 32.3
13:05 1022 30.18 852 25.16 6.1 43 65 0 32.1
13:10 1022 30.18 852 25.16 6.1 43 65 0.2 32.3
13:15 1022 30.18 852 25.16 5.9 42.6 67 0.2 32.4
13:20 1022 30.18 852 25.16 5.9 42.5 68 0.3 32.6
13:25 1023 30.21 852 25.16 5.9 42.7 69 0.6 33.1
13:30 1023 30.21 852 25.16 6 42.8 67 0.4 32.8
13:35 1023 30.21 852 25.16 6 42.8 66 0.2 32.4
13:40 1023 30.21 852 25.16 6.3 43.4 63 -0.2 31.6
13:45 1023 30.21 852 25.16 6.3 43.3 64 0 32.1
13:50 1023 30.21 852 25.16 6.3 43.3 64 0.1 32.1
13:55 1023 30.21 852 25.16 7 44.6 61 0 32.1
14:00 1023 30.21 852 25.16 7 44.6 59 -0.5 31.2
14:05 1023 30.21 852 25.16 7.3 45.1 57 -0.7 30.8
14:10 1023 30.21 852 25.16 7.5 45.4 57 -0.6 30.9
14:15 1023 30.21 852 25.16 7.3 45.2 56 -0.9 30.3
14:20 1023 30.21 852 25.16 7.4 45.4 57 -0.5 31.1
14:25 1023 30.21 852 25.16 7.2 44.9 57 -0.6 30.8
14:30 1023 30.21 852 25.16 7.4 45.3 57 -0.7 30.8
14:35 1023 30.21 852 25.16 7.2 45 56 -0.9 30.4
14:40 1023 30.21 852 25.16 7.3 45.1 55 -1.2 29.8
14:45 1023 30.21 852 25.16 7.3 45.1 55 -1.1 30
14:50 1023 30.21 852 25.16 7.3 45.1 55 -1 30.2
14:55 1023 30.21 852 25.16 7.2 45 57 -0.7 30.7
15:00 1023 30.21 852 25.16 7 44.6 57 -1 30.3
15:05 1023 30.21 852 25.16 7.1 44.8 57 -0.8 30.5
15:10 1023 30.21 852 25.16 7.1 44.7 57 -0.8 30.6
15:15 1023 30.21 852 25.16 7.1 44.7 57 -0.8 30.6
15:20 1023 30.21 852 25.16 6.8 44.2 59 -0.6 30.9
15:25 1023 30.21 852 25.16 6.7 44.1 59 -0.6 30.9
15:30 1023 30.21 852 25.16 6.5 43.7 60 -0.8 30.6
15:35 1023 30.21 852 25.16 6.7 44.1 58 -1 30.3
15:40 1023 30.21 852 25.16 6.9 44.4 58 -0.8 30.6
15:45 1023 30.21 852 25.16 6.7 44 58 -1 30.2
15:50 1023 30.21 853 25.19 6.7 44.1 58 -0.9 30.4
15:55 1023 30.21 853 25.19 6.9 44.5 57 -0.9 30.3
16:00 1023 30.21 852 25.16 6.8 44.3 57 -1.2 29.9
16:05 1023 30.21 852 25.16 6.9 44.4 58 -0.7 30.7
16:10 1023 30.21 852 25.16 7 44.5 57 -0.9 30.4
16:15 1023 30.21 853 25.19 7 44.7 58 -0.7 30.8
16:20 1023 30.21 853 25.19 7 44.5 56 -1.1 30
16:25 1023 30.21 853 25.19 6.8 44.3 58 -0.9 30.3
16:30 1023 30.21 853 25.19 7 44.6 56 -1.1 30.1
16:35 1023 30.21 853 25.19 7.5 45.5 54 -1.1 30
16:40 1023 30.21 853 25.19 7.8 46 55 -0.7 30.8
16:45 1023 30.21 853 25.19 7.4 45.3 54 -1.2 29.8
16:50 1023 30.21 853 25.19 7.4 45.2 54 -1.3 29.7
16:55 1024 30.24 853 25.19 7.2 45 55 -1.3 29.7
17:00 1024 30.24 853 25.19 7.2 44.9 54 -1.4 29.5
17:05 1024 30.24 853 25.19 7.5 45.6 53 -1.5 29.3
17:10 1024 30.24 853 25.19 7.7 45.9 53 -1.2 29.9
17:15 1024 30.24 853 25.19 7.7 45.8 54 -1.1 30.1
17:20 1024 30.24 853 25.19 7.3 45.2 56 -1 30.3
17:25 1024 30.24 853 25.19 7.2 45 56 -0.9 30.4
17:30 1024 30.24 853 25.19 7 44.6 55 -1.4 29.4
17:35 1024 30.24 853 25.19 6.9 44.4 54 -1.9 28.6
17:40 1024 30.24 853 25.19 6.8 44.2 55 -1.6 29
17:45 1024 30.24 853 25.19 6.7 44.1 54 -1.8 28.7
17:50 1024 30.24 853 25.19 6.6 43.9 53 -2.3 27.8
17:55 1024 30.24 853 25.19 6.5 43.7 55 -2 28.5
18:00 1024 30.24 853 25.19 6.4 43.5 55 -1.9 28.6
18:05 1024 30.24 853 25.19 6.4 43.5 56 -1.7 29
18:10 1024 30.24 853 25.19 6.6 43.8 56 -1.6 29.2
18:15 1024 30.24 853 25.19 6.5 43.7 56 -1.5 29.3
18:20 1024 30.24 853 25.19 6.5 43.7 57 -1.5 29.3
18:25 1024 30.24 853 25.19 6.5 43.6 56 -1.6 29.2
18:30 1024 30.24 853 25.19 6.3 43.4 56 -1.7 29
18:35 1024 30.24 854 25.22 6.3 43.3 57 -1.5 29.3
18:40 1024 30.24 854 25.22 6.2 43.1 58 -1.5 29.3
18:45 1024 30.24 854 25.22 6.1 43 58 -1.6 29.2
18:50 1024 30.24 854 25.22 6 42.8 58 -1.6 29.1
18:55 1024 30.24 854 25.22 6 42.7 58 -1.6 29.2
19:00 1024 30.24 854 25.22 5.9 42.6 59 -1.5 29.3
19:05 1024 30.24 854 25.22 5.8 42.4 59 -1.5 29.3
19:10 1024 30.24 854 25.22 5.7 42.3 60 -1.5 29.3
19:15 1025 30.27 854 25.22 5.7 42.2 60 -1.4 29.4
19:20 1025 30.27 854 25.22 5.6 42.1 61 -1.4 29.5
19:25 1025 30.27 854 25.22 5.6 42.1 61 -1.3 29.7
19:30 1025 30.27 854 25.22 5.5 41.9 62 -1.1 30
19:35 1025 30.27 854 25.22 5.4 41.7 64 -0.9 30.4
19:40 1025 30.27 854 25.22 5.3 41.5 65 -0.8 30.6
19:45 1025 30.27 854 25.22 5.1 41.3 66 -0.7 30.8
19:50 1025 30.27 854 25.22 5.1 41.1 66 -0.7 30.7
19:55 1025 30.27 854 25.22 5.1 41.1 66 -0.8 30.5
20:00 1025 30.27 854 25.22 5 41.1 67 -0.6 31
20:05 1025 30.27 854 25.22 4.9 40.9 68 -0.4 31.3
20:10 1025 30.27 854 25.22 4.9 40.7 69 -0.3 31.4
20:15 1025 30.27 854 25.22 4.8 40.7 69 -0.3 31.5
20:20 1025 30.27 854 25.22 4.8 40.7 69 -0.3 31.5
20:25 1025 30.27 854 25.22 4.8 40.6 70 -0.3 31.5
20:30 1025 30.27 854 25.22 4.8 40.6 70 -0.3 31.5
20:35 1025 30.27 854 25.22 4.8 40.6 70 -0.3 31.4
20:40 1025 30.27 854 25.22 4.8 40.7 69 -0.4 31.2
20:45 1025 30.27 855 25.25 4.9 40.7 70 -0.2 31.6
20:50 1025 30.27 855 25.25 4.8 40.7 70 -0.2 31.6
20:55 1025 30.27 855 25.25 4.8 40.6 69 -0.3 31.4
21:00 1025 30.27 855 25.25 4.8 40.6 70 -0.2 31.6
21:05 1025 30.27 855 25.25 4.8 40.6 69 -0.3 31.4
21:10 1026 30.3 855 25.25 4.8 40.7 69 -0.3 31.5
21:15 1026 30.3 855 25.25 4.8 40.7 69 -0.3 31.5
21:20 1026 30.3 855 25.25 4.8 40.7 70 -0.1 31.7
21:25 1026 30.3 855 25.25 4.7 40.5 68 -0.6 30.8
21:30 1026 30.3 855 25.25 4.8 40.7 69 -0.3 31.5
21:35 1026 30.3 855 25.25 4.7 40.4 70 -0.3 31.5
21:40 1026 30.3 855 25.25 4.7 40.4 70 -0.3 31.4
21:45 1026 30.3 855 25.25 4.7 40.4 70 -0.2 31.6
21:50 1026 30.3 855 25.25 4.7 40.4 70 -0.3 31.5
21:55 1026 30.3 855 25.25 4.7 40.4 70 -0.3 31.5
22:00 1026 30.3 855 25.25 4.7 40.4 71 -0.2 31.6
22:05 1026 30.3 855 25.25 4.7 40.4 70 -0.3 31.5
22:10 1026 30.3 855 25.25 4.7 40.4 70 -0.3 31.4
22:15 1026 30.3 855 25.25 4.7 40.5 70 -0.3 31.5
22:20 1026 30.3 855 25.25 4.7 40.4 70 -0.4 31.3
22:25 1026 30.3 855 25.25 4.7 40.5 70 -0.3 31.5
22:30 1026 30.3 855 25.25 4.6 40.3 71 -0.2 31.7
22:35 1026 30.3 855 25.25 4.6 40.3 71 -0.3 31.5
22:40 1026 30.3 855 25.25 4.6 40.2 71 -0.2 31.7
22:45 1026 30.3 855 25.25 4.5 40.1 71 -0.2 31.6
22:50 1026 30.3 855 25.25 4.5 40.1 71 -0.2 31.6
22:55 1026 30.3 855 25.25 4.5 40.1 71 -0.3 31.5
23:00 1026 30.3 855 25.25 4.5 40.1 71 -0.2 31.6
23:05 1026 30.3 855 25.25 4.4 40 72 -0.2 31.6
23:10 1026 30.3 855 25.25 4.4 39.9 72 -0.2 31.6
23:15 1026 30.3 855 25.25 4.4 40 72 -0.2 31.6
23:20 1026 30.3 855 25.25 4.4 40 72 -0.2 31.6
23:25 1026 30.3 855 25.25 4.4 40 72 -0.2 31.6
23:30 1026 30.3 855 25.25 4.4 40 71 -0.3 31.5
23:35 1026 30.3 855 25.25 4.4 40 71 -0.3 31.4
23:40 1026 30.3 855 25.25 4.5 40.2 70 -0.5 31.1
23:45 1026 30.3 855 25.25 4.7 40.4 70 -0.3 31.4
23:50 1026 30.3 855 25.25 4.6 40.3 70 -0.3 31.4
23:55 1026 30.3 855 25.25 4.5 40.2 71 -0.3 31.5
24:00 1026 30.3 855 25.25 4.5 40.1 71 -0.4 31.4